createdAt,value
2023-05-19T00:00:30.646Z,11.96
2023-05-19T00:10:30.576Z,12.01
2023-05-19T00:20:30.484Z,12.05
2023-05-19T00:30:30.547Z,12.05
2023-05-19T00:40:30.373Z,11.98
2023-05-19T00:50:30.547Z,11.96
2023-05-19T01:00:30.474Z,11.9
2023-05-19T01:10:30.499Z,11.84
2023-05-19T01:20:30.428Z,11.75
2023-05-19T01:30:30.483Z,11.75
2023-05-19T01:40:30.505Z,11.71
2023-05-19T01:50:30.379Z,11.7
2023-05-19T02:00:30.388Z,11.69
2023-05-19T02:10:30.370Z,11.65
2023-05-19T02:20:30.379Z,11.55
2023-05-19T02:30:30.261Z,11.51
2023-05-19T02:40:30.375Z,11.47
2023-05-19T02:50:30.371Z,11.41
2023-05-19T03:00:30.333Z,11.33
2023-05-19T03:10:30.410Z,11.3
2023-05-19T03:20:30.344Z,11.21
2023-05-19T03:30:30.428Z,11.14
2023-05-19T03:40:30.356Z,11.16
2023-05-19T03:50:30.345Z,11.21
2023-05-19T04:00:30.402Z,11.19
2023-05-19T04:10:30.369Z,11.21
2023-05-19T04:20:30.302Z,11.25
2023-05-19T04:30:30.350Z,11.37
2023-05-19T04:40:30.284Z,11.51
2023-05-19T04:50:30.262Z,11.68
2023-05-19T05:00:30.235Z,11.95
2023-05-19T05:10:30.279Z,12.07
2023-05-19T05:20:30.313Z,12.16
2023-05-19T05:30:30.143Z,12.11
2023-05-19T05:40:30.206Z,12.13
2023-05-19T05:50:30.164Z,12.42
2023-05-19T06:00:30.232Z,12.56
2023-05-19T06:10:30.223Z,12.89
2023-05-19T06:20:30.221Z,12.98
2023-05-19T06:30:30.321Z,13.07
2023-05-19T06:40:30.350Z,13.4
2023-05-19T06:50:30.200Z,13.75
2023-05-19T07:00:30.128Z,14.01
2023-05-19T07:10:30.201Z,14.79
2023-05-19T07:20:30.316Z,15.25
2023-05-19T07:30:30.146Z,15.69
2023-05-19T07:40:30.173Z,15.53
2023-05-19T07:50:30.219Z,15.35
2023-05-19T08:00:30.171Z,15.3
2023-05-19T08:10:30.192Z,15.18
2023-05-19T08:20:30.190Z,15.07
2023-05-19T08:30:30.149Z,14.82
2023-05-19T08:40:30.099Z,14.49
2023-05-19T08:50:30.177Z,14.24
2023-05-19T09:00:30.038Z,14.46
2023-05-19T09:10:30.158Z,14.41
2023-05-19T09:20:30.015Z,14.84
2023-05-19T09:30:30.013Z,15.63
2023-05-19T09:40:30.065Z,15.68
2023-05-19T09:50:29.994Z,15.67
2023-05-19T10:00:30.015Z,15.75
2023-05-19T10:10:30.010Z,16.1
2023-05-19T10:20:30.002Z,16
2023-05-19T10:30:30.043Z,15.68
2023-05-19T10:40:29.977Z,15.6
2023-05-19T10:50:29.971Z,15.53
2023-05-19T11:00:29.968Z,15.22
2023-05-19T11:10:29.936Z,15.26
2023-05-19T11:20:29.927Z,15.33
2023-05-19T11:30:29.906Z,15.08
2023-05-19T11:40:29.895Z,15.13
2023-05-19T11:50:29.882Z,15.14
2023-05-19T12:00:29.865Z,15.01
2023-05-19T12:10:30.046Z,15.45
2023-05-19T12:20:29.881Z,15.72
2023-05-19T12:30:29.867Z,15.63
2023-05-19T12:40:29.922Z,15.46
2023-05-19T12:50:29.829Z,16.06
2023-05-19T13:00:29.875Z,16.81
2023-05-19T13:10:29.835Z,16.87
2023-05-19T13:20:29.816Z,16.28
2023-05-19T13:30:29.814Z,15.95
2023-05-19T13:40:29.832Z,15.72
2023-05-19T13:50:29.782Z,15.55
2023-05-19T14:00:29.797Z,15.43
2023-05-19T14:10:29.809Z,15.26
2023-05-19T14:20:29.814Z,15.13
2023-05-19T14:30:29.760Z,14.99
2023-05-19T14:40:29.719Z,14.78
2023-05-19T14:50:29.782Z,14.78
2023-05-19T15:00:29.772Z,14.69
2023-05-19T15:10:29.740Z,14.69
2023-05-19T15:20:29.770Z,14.72
2023-05-19T15:30:29.756Z,14.67
2023-05-19T15:40:29.717Z,14.61
2023-05-19T15:50:29.752Z,14.5
2023-05-19T16:00:29.693Z,14.57
2023-05-19T16:10:29.712Z,14.6
2023-05-19T16:20:29.718Z,14.51
2023-05-19T16:30:29.664Z,14.44
2023-05-19T16:40:30.887Z,14.3
2023-05-19T16:50:29.656Z,14.17
2023-05-19T17:00:29.618Z,14.04
2023-05-19T17:10:29.647Z,14
2023-05-19T17:20:29.622Z,13.88
2023-05-19T17:30:29.641Z,13.75
2023-05-19T17:40:29.591Z,13.62
2023-05-19T17:50:29.586Z,13.59
2023-05-19T18:00:29.572Z,13.52
2023-05-19T18:10:29.576Z,13.45
2023-05-19T18:20:29.592Z,13.44
2023-05-19T18:30:29.573Z,13.39
2023-05-19T18:40:29.562Z,13.49
2023-05-19T18:50:29.532Z,13.48
2023-05-19T19:00:29.559Z,13.55
2023-05-19T19:10:29.581Z,13.47
2023-05-19T19:20:29.558Z,13.34
2023-05-19T19:30:29.660Z,13.22
2023-05-19T19:40:29.559Z,13.17
2023-05-19T19:50:29.549Z,13.15
2023-05-19T20:00:29.523Z,13.21
2023-05-19T20:10:29.535Z,13.2
2023-05-19T20:20:29.538Z,13.16
2023-05-19T20:30:29.617Z,13.16
2023-05-19T20:40:29.539Z,13.12
2023-05-19T20:50:29.552Z,13.03
2023-05-19T21:00:30.469Z,12.92
2023-05-19T21:10:29.546Z,12.84
2023-05-19T21:20:29.467Z,12.7
2023-05-19T21:30:29.530Z,12.63
2023-05-19T21:40:29.460Z,12.49
2023-05-19T21:50:29.455Z,12.37
2023-05-19T22:00:29.475Z,12.34
2023-05-19T22:10:29.458Z,12.27
2023-05-19T22:20:29.436Z,12.17
2023-05-19T22:30:29.447Z,12.12
2023-05-19T22:40:29.498Z,12.13
2023-05-19T22:50:29.424Z,12.15
2023-05-19T23:00:29.498Z,12.11
2023-05-19T23:10:29.460Z,12.16
2023-05-19T23:20:29.457Z,12.11
2023-05-19T23:30:29.392Z,12.12
2023-05-19T23:40:29.401Z,12.13
2023-05-19T23:50:29.369Z,12.1
